createdAt,value
2019-02-03T05:58:52.087Z,17.30
2019-02-03T06:09:36.254Z,15.83
2019-02-03T06:12:38.457Z,17.40
2019-02-03T06:18:14.462Z,21.40
2019-02-03T06:25:17.495Z,22.25
2019-02-03T06:47:54.368Z,19.15
2019-02-03T06:51:12.476Z,24.98
2019-02-03T06:57:58.054Z,24.60
2019-02-03T07:00:29.747Z,26.25
2019-02-03T07:03:44.085Z,20.50
2019-02-03T07:08:50.689Z,28.62
2019-02-03T07:11:22.151Z,26.25
2019-02-03T07:13:52.376Z,28.42
2019-02-03T07:16:24.051Z,27.80
2019-02-03T07:18:54.311Z,29.30
2019-02-03T07:21:24.514Z,27.22
2019-02-03T07:23:56.666Z,25.60
2019-02-03T07:26:36.810Z,26.35
2019-02-03T07:29:09.134Z,27.65
2019-02-03T07:31:42.642Z,21.35
2019-02-03T07:34:13.989Z,23.20
2019-02-03T07:36:44.292Z,27.82
2019-02-03T07:39:14.507Z,26.02
2019-02-03T07:41:48.707Z,24.00
2019-02-03T07:44:19.873Z,25.25
2019-02-03T07:46:52.219Z,30.88
2019-02-03T07:49:26.391Z,27.25
2019-02-03T07:51:59.240Z,31.40
2019-02-03T07:54:29.453Z,26.00
2019-02-03T07:56:59.601Z,34.55
2019-02-03T07:59:30.517Z,32.67
2019-02-03T08:02:02.658Z,24.87
2019-02-03T08:04:32.870Z,33.50
2019-02-03T08:07:03.043Z,33.25
2019-02-03T08:09:34.521Z,32.70
2019-02-03T08:12:04.669Z,33.88
2019-02-03T08:14:34.856Z,31.37
2019-02-03T08:17:06.114Z,31.57
2019-02-03T08:19:36.286Z,26.70
2019-02-03T08:22:06.715Z,22.42
2019-02-03T08:24:36.890Z,36.05
2019-02-03T08:27:07.065Z,29.30
2019-02-03T08:29:41.415Z,35.23
2019-02-03T08:32:12.331Z,29.63
2019-02-03T08:34:43.105Z,31.60
2019-02-03T08:37:15.409Z,19.77
2019-02-03T08:39:45.577Z,31.00
2019-02-03T08:42:15.805Z,30.15
2019-02-03T08:44:46.002Z,31.30
2019-02-03T08:47:17.873Z,24.25
2019-02-03T08:49:48.131Z,21.17
2019-02-03T08:52:18.315Z,23.35
2019-02-03T08:54:57.982Z,23.92
2019-02-03T08:57:22.164Z,23.73
2019-02-03T08:59:52.763Z,28.40
2019-02-03T09:02:23.657Z,24.35
2019-02-03T09:04:53.841Z,26.50
2019-02-03T09:07:24.236Z,28.45
2019-02-03T09:09:54.412Z,29.95
2019-02-03T09:12:25.030Z,30.82
2019-02-03T09:14:55.133Z,31.77
2019-02-03T09:17:30.699Z,33.08
2019-02-03T09:20:00.858Z,35.58
2019-02-03T09:22:31.124Z,32.85
2019-02-03T09:25:01.471Z,34.65
2019-02-03T09:27:31.684Z,30.62
2019-02-03T09:30:01.881Z,33.40
2019-02-03T09:32:32.076Z,37.13
2019-02-03T09:35:02.360Z,26.17
2019-02-03T09:37:33.990Z,33.50
2019-02-03T09:40:07.978Z,30.57
2019-02-03T09:42:39.712Z,29.75
2019-02-03T09:45:13.724Z,31.15
2019-02-03T09:47:43.948Z,33.42
2019-02-03T09:50:16.819Z,34.27
2019-02-03T09:52:48.193Z,35.30
2019-02-03T09:55:20.337Z,25.77
2019-02-03T09:57:51.695Z,28.15
2019-02-03T10:00:30.626Z,28.85
2019-02-03T10:03:05.360Z,30.17
2019-02-03T10:05:42.561Z,31.23
2019-02-03T10:08:18.402Z,30.72
2019-02-03T10:10:48.693Z,31.03
2019-02-03T10:13:19.900Z,28.57
2019-02-03T10:15:50.349Z,25.68
2019-02-03T10:18:20.540Z,27.75
2019-02-03T10:20:50.755Z,31.87
2019-02-03T10:23:20.943Z,26.07
2019-02-03T10:25:55.248Z,25.65
2019-02-03T10:28:24.105Z,23.50
2019-02-03T10:30:54.706Z,23.62
2019-02-03T10:33:24.957Z,25.90
2019-02-03T10:35:55.209Z,27.75
2019-02-03T10:38:25.594Z,26.62
2019-02-03T10:41:00.282Z,21.93
2019-02-03T10:43:30.508Z,25.10
2019-02-03T10:46:04.478Z,20.70
2019-02-03T10:48:34.692Z,21.48
2019-02-03T10:51:05.465Z,22.70
2019-02-03T10:53:36.090Z,24.18
2019-02-03T10:56:06.784Z,22.00
2019-02-03T10:58:37.498Z,21.68
2019-02-03T11:01:08.031Z,24.90
2019-02-03T11:03:38.400Z,20.65
2019-02-03T11:06:08.654Z,23.55
2019-02-03T11:08:38.854Z,20.45
2019-02-03T11:11:09.696Z,18.07
2019-02-03T11:13:40.283Z,24.85
2019-02-03T11:16:10.827Z,20.23
2019-02-03T11:18:41.006Z,21.75
2019-02-03T11:21:11.191Z,20.02
2019-02-03T11:23:41.603Z,19.50
2019-02-03T11:26:12.140Z,22.17
2019-02-03T11:28:42.559Z,19.52
2019-02-03T11:31:12.819Z,19.75
2019-02-03T11:35:18.140Z,19.20
2019-02-03T11:53:53.024Z,17.82
2019-02-03T12:30:03.589Z,15.70
2019-02-03T12:32:38.073Z,13.55
2019-02-03T12:36:06.443Z,14.40
2019-02-03T12:47:44.311Z,17.87
2019-02-03T12:52:26.161Z,11.00
2019-02-03T13:25:17.924Z,16.87
2019-02-03T13:27:46.309Z,18.65
2019-02-03T13:30:26.326Z,17.60
2019-02-03T13:32:59.426Z,16.00
2019-02-03T13:35:30.212Z,16.40
2019-02-03T13:38:00.825Z,17.75
2019-02-03T13:40:31.499Z,20.80
2019-02-03T13:43:03.653Z,16.73
2019-02-03T13:45:36.847Z,18.48
2019-02-03T13:48:17.699Z,16.73
2019-02-03T13:51:11.668Z,19.60
2019-02-03T13:53:52.464Z,19.12
2019-02-03T13:56:23.798Z,18.67
2019-02-03T13:58:59.317Z,22.40
2019-02-03T14:01:33.485Z,20.45
2019-02-03T14:04:05.057Z,22.02
2019-02-03T14:06:37.285Z,19.75
2019-02-03T14:09:10.383Z,22.25
2019-02-03T14:11:45.526Z,19.48
2019-02-03T14:14:16.619Z,20.32
2019-02-03T14:16:48.755Z,22.35
2019-02-03T14:19:22.901Z,21.02
2019-02-03T14:21:53.705Z,22.62
2019-02-03T14:24:33.729Z,20.35
2019-02-03T14:27:05.808Z,17.62
2019-02-03T14:29:43.190Z,20.65
2019-02-03T14:32:14.560Z,20.72
2019-02-03T14:34:49.729Z,19.35
2019-02-03T14:37:21.035Z,22.77
2019-02-03T14:39:51.194Z,21.07
2019-02-03T14:42:21.978Z,21.35
2019-02-03T14:44:53.167Z,22.15
2019-02-03T14:47:27.724Z,20.30
2019-02-03T14:49:59.393Z,21.77
2019-02-03T14:52:35.132Z,23.42
2019-02-03T14:55:09.690Z,23.05
2019-02-03T14:57:41.513Z,22.55
2019-02-03T15:00:23.174Z,19.50
2019-02-03T15:03:04.348Z,21.07
2019-02-03T15:24:28.845Z,19.05
2019-02-03T15:27:37.698Z,18.07
2019-02-03T15:34:02.486Z,20.43
2019-02-03T15:37:29.019Z,20.27
2019-02-03T15:41:20.676Z,20.00
2019-02-03T16:38:53.731Z,19.15
2019-02-03T16:42:11.741Z,18.55
2019-02-03T16:48:30.741Z,19.73
2019-02-03T16:51:05.312Z,19.02
2019-02-03T16:53:44.185Z,25.20
2019-02-03T16:56:21.749Z,23.35
2019-02-03T16:58:58.976Z,20.00
2019-02-03T17:01:40.259Z,19.50
2019-02-03T17:04:07.606Z,21.62
2019-02-03T17:06:59.148Z,22.00
2019-02-03T17:10:05.566Z,22.82
2019-02-03T17:14:20.216Z,21.85
2019-02-03T17:17:45.475Z,18.45
2019-02-03T17:21:03.943Z,22.27
2019-02-03T17:24:48.293Z,23.85
2019-02-03T17:31:06.962Z,21.75
2019-02-03T17:37:32.364Z,23.05
2019-02-03T17:40:06.481Z,19.40
2019-02-03T20:20:54.315Z,11.65
2019-02-03T20:31:41.424Z,10.30
2019-02-03T20:35:13.278Z,9.33
2019-02-03T20:38:05.180Z,9.25
2019-02-03T20:41:01.835Z,9.15
2019-02-03T20:44:01.870Z,9.70
2019-02-03T20:46:45.339Z,9.50
2019-02-03T20:49:20.131Z,8.83
2019-02-03T20:52:18.140Z,9.18
2019-02-03T20:55:16.299Z,7.80
2019-02-03T20:58:10.622Z,8.95
2019-02-03T21:01:22.084Z,9.03
2019-02-03T21:03:57.835Z,7.90
2019-02-03T21:07:05.360Z,8.28
2019-02-03T21:09:57.747Z,9.90
2019-02-03T21:12:56.993Z,10.18
2019-02-03T21:16:08.226Z,9.80
2019-02-03T21:30:01.647Z,9.80
2019-02-03T21:33:16.242Z,9.38
2019-02-03T21:39:08.732Z,9.38
2019-02-03T21:41:41.972Z,11.05
2019-02-03T21:44:14.899Z,10.20
2019-02-03T21:47:08.038Z,7.92
2019-02-03T22:15:12.289Z,10.15
